createdAt,value
2023-02-08T02:04:08.747Z,99.90
2023-02-08T02:06:40.344Z,99.10
2023-02-08T02:09:15.927Z,97.80
2023-02-08T02:11:43.480Z,96.80
2023-02-08T02:14:11.429Z,96.20
2023-02-08T02:16:38.645Z,95.80
2023-02-08T02:19:10.591Z,95.60
2023-02-08T02:22:13.322Z,95.70
2023-02-08T02:25:00.179Z,96.60
2023-02-08T02:27:37.863Z,97.80
2023-02-08T02:30:29.569Z,97.20
2023-02-08T02:33:25.058Z,96.50
2023-02-08T02:36:07.738Z,95.50
2023-02-08T02:39:05.251Z,95.50
2023-02-08T02:42:23.084Z,94.90
2023-02-08T02:45:05.018Z,94.80
2023-02-08T02:47:34.562Z,95.40
2023-02-08T02:50:16.170Z,96.40
2023-02-08T02:53:09.721Z,96.80
2023-02-08T02:55:44.180Z,97.20
2023-02-08T02:58:13.503Z,97.70
2023-02-08T03:00:41.327Z,96.60
2023-02-08T03:03:21.355Z,96.10
2023-02-08T03:05:49.181Z,96.90
2023-02-08T03:08:25.051Z,97.60
2023-02-08T03:11:05.004Z,97.70
2023-02-08T03:13:43.724Z,96.70
2023-02-08T03:16:20.217Z,96.30
2023-02-08T03:19:11.813Z,95.70
2023-02-08T03:21:43.630Z,95.10
2023-02-08T03:24:22.243Z,95.90
2023-02-08T03:27:16.134Z,95.30
2023-02-08T03:29:58.926Z,95.50
2023-02-08T03:32:52.255Z,96.40
2023-02-08T03:35:29.544Z,96.40
2023-02-08T03:38:11.062Z,96.90
2023-02-08T03:40:46.033Z,97.30
2023-02-08T03:43:48.732Z,97.70
2023-02-08T03:46:25.898Z,98.00
2023-02-08T03:48:59.231Z,97.60
2023-02-08T03:51:28.447Z,99.00
2023-02-08T03:53:57.609Z,98.60
2023-02-08T03:56:44.539Z,98.20
2023-02-08T03:59:21.665Z,97.50
2023-02-08T04:01:57.846Z,96.60
2023-02-08T04:04:26.759Z,96.00
2023-02-08T04:06:53.829Z,96.50
2023-02-08T04:09:20.687Z,97.00
2023-02-08T04:11:47.484Z,97.40
2023-02-08T04:14:14.247Z,98.50
2023-02-08T04:16:41.096Z,98.20
2023-02-08T04:19:07.894Z,97.90
2023-02-08T04:21:34.690Z,97.50
2023-02-08T04:24:01.647Z,98.40
2023-02-08T04:26:28.522Z,99.90
2023-02-08T04:28:55.331Z,99.90
2023-02-08T04:31:22.310Z,99.90
2023-02-08T04:33:49.238Z,99.90
2023-02-08T04:36:16.032Z,99.90
2023-02-08T04:38:42.841Z,99.90
2023-02-08T04:41:09.728Z,99.90
2023-02-08T04:43:36.865Z,99.90
2023-02-08T04:46:04.314Z,99.90
2023-02-08T04:48:31.231Z,99.90
2023-02-08T04:50:58.953Z,99.90
2023-02-08T04:53:26.226Z,99.90
2023-02-08T04:55:53.152Z,99.90
2023-02-08T04:58:19.935Z,99.90
2023-02-08T05:00:47.209Z,99.90
2023-02-08T05:03:15.073Z,99.90
2023-02-08T05:05:42.122Z,99.90
2023-02-08T05:08:09.253Z,99.90
2023-02-08T05:10:36.158Z,99.90
2023-02-08T05:13:03.168Z,99.90
2023-02-08T05:15:30.058Z,99.90
2023-02-08T05:17:56.914Z,99.90
2023-02-08T05:20:23.815Z,99.90
2023-02-08T05:22:50.693Z,99.90
2023-02-08T05:25:18.129Z,99.90
2023-02-08T05:27:44.920Z,99.90
2023-02-08T05:30:12.126Z,99.90
2023-02-08T05:32:39.015Z,99.90
2023-02-08T05:35:06.170Z,99.90
2023-02-08T05:37:33.022Z,99.90
2023-02-08T05:39:59.891Z,99.90
2023-02-08T05:42:27.119Z,99.90
2023-02-08T05:44:53.998Z,99.90
2023-02-08T05:47:20.893Z,99.90
2023-02-08T05:49:47.679Z,99.90
2023-02-08T05:52:14.524Z,99.90
2023-02-08T05:54:41.307Z,99.90
2023-02-08T05:57:08.281Z,99.90
2023-02-08T05:59:35.119Z,99.90
2023-02-08T06:02:01.967Z,99.90
2023-02-08T06:04:28.944Z,99.90
2023-02-08T06:06:55.784Z,99.90
2023-02-08T06:09:22.603Z,99.90
2023-02-08T06:11:49.955Z,99.90
2023-02-08T06:14:16.816Z,99.90
2023-02-08T06:16:43.602Z,99.90
2023-02-08T06:19:10.545Z,99.90
2023-02-08T06:21:37.415Z,99.90
2023-02-08T06:24:06.711Z,99.90
2023-02-08T06:26:34.296Z,99.90
2023-02-08T06:29:01.219Z,99.90
2023-02-08T06:31:28.238Z,99.90
2023-02-08T06:33:55.020Z,99.90
2023-02-08T06:36:22.076Z,99.90
2023-02-08T06:38:51.036Z,99.90
2023-02-08T06:41:18.139Z,99.90
2023-02-08T06:43:44.985Z,99.90
2023-02-08T06:46:12.065Z,99.90
2023-02-08T06:48:38.957Z,99.90
2023-02-08T06:51:05.920Z,99.90
2023-02-08T06:53:32.835Z,99.90
2023-02-08T06:55:59.668Z,99.90
2023-02-08T06:58:26.702Z,99.90
2023-02-08T07:00:53.542Z,99.90
2023-02-08T07:03:22.688Z,99.90
2023-02-08T07:06:03.737Z,99.90
2023-02-08T07:08:32.822Z,99.90
2023-02-08T07:10:59.687Z,99.90
2023-02-08T07:13:26.547Z,98.60
2023-02-08T07:15:53.332Z,97.40
2023-02-08T07:18:20.194Z,97.00
2023-02-08T07:20:48.493Z,96.10
2023-02-08T07:23:15.288Z,95.60
2023-02-08T07:25:42.206Z,94.20
2023-02-08T07:28:09.045Z,93.10
2023-02-08T07:30:36.738Z,93.60
2023-02-08T07:33:03.668Z,95.60
2023-02-08T07:35:30.820Z,96.80
2023-02-08T07:37:57.779Z,97.40
2023-02-08T07:40:24.645Z,97.30
2023-02-08T07:42:51.471Z,97.70
2023-02-08T07:45:18.483Z,97.40
2023-02-08T07:47:46.618Z,97.00
2023-02-08T07:50:13.443Z,99.90
2023-02-08T07:52:43.193Z,99.90
2023-02-08T07:55:11.903Z,99.00
2023-02-08T07:57:38.702Z,91.80
2023-02-08T08:00:07.434Z,91.00
2023-02-08T08:02:34.270Z,88.40
2023-02-08T08:05:01.086Z,88.00
2023-02-08T08:07:27.885Z,92.30
2023-02-08T08:09:54.671Z,93.90
2023-02-08T08:12:21.644Z,96.30
2023-02-08T08:14:48.496Z,97.10
2023-02-08T08:17:15.361Z,95.20
2023-02-08T08:19:42.264Z,92.60
2023-02-08T08:22:09.385Z,90.70
2023-02-08T08:24:38.854Z,84.10
2023-02-08T08:27:06.961Z,82.80
2023-02-08T08:29:37.132Z,78.60
2023-02-08T08:32:04.428Z,75.50
2023-02-08T08:34:32.007Z,68.40
2023-02-08T08:37:00.938Z,66.70
2023-02-08T08:39:28.262Z,63.90
2023-02-08T08:41:59.764Z,62.50
2023-02-08T08:44:26.627Z,63.60
2023-02-08T08:46:57.419Z,62.70
2023-02-08T08:49:25.432Z,61.30
2023-02-08T08:51:52.334Z,60.00
2023-02-08T08:54:20.083Z,58.60
2023-02-08T08:56:47.059Z,55.50
2023-02-08T08:59:14.559Z,54.60
2023-02-08T09:01:42.935Z,53.40
2023-02-08T09:04:11.042Z,54.60
2023-02-08T09:06:38.694Z,53.90
2023-02-08T09:09:06.018Z,52.40
2023-02-08T09:11:35.759Z,51.50
2023-02-08T09:14:04.567Z,52.00
2023-02-08T09:16:33.080Z,52.00
2023-02-08T09:19:07.149Z,52.90
2023-02-08T09:21:34.629Z,52.90
2023-02-08T09:24:02.130Z,52.40
2023-02-08T09:26:29.178Z,51.60
2023-02-08T09:28:56.116Z,50.80
2023-02-08T09:31:26.469Z,51.10
2023-02-08T09:33:55.626Z,51.10
2023-02-08T09:36:24.859Z,51.30
2023-02-08T09:39:00.252Z,50.10
2023-02-08T09:42:10.629Z,50.20
2023-02-08T09:44:40.246Z,49.20
2023-02-08T09:47:11.329Z,47.90
2023-02-08T09:49:44.297Z,48.70
2023-02-08T09:52:18.540Z,48.30
2023-02-08T09:54:53.820Z,48.70
2023-02-08T09:57:26.097Z,48.10
2023-02-08T10:00:04.411Z,48.00
2023-02-08T10:02:34.753Z,47.90
2023-02-08T10:05:12.241Z,47.50
2023-02-08T10:07:41.043Z,46.60
2023-02-08T10:10:15.789Z,47.20
2023-02-08T10:13:00.540Z,46.60
2023-02-08T10:15:42.318Z,46.30
2023-02-08T10:18:34.000Z,46.50
2023-02-08T10:21:37.666Z,46.90
2023-02-08T10:24:04.486Z,46.80
2023-02-08T10:26:43.761Z,47.10
2023-02-08T10:29:29.385Z,46.40
2023-02-08T10:32:07.218Z,46.00
2023-02-08T10:34:54.609Z,46.90
2023-02-08T10:37:37.398Z,46.50
2023-02-08T10:40:18.954Z,46.10
2023-02-08T10:43:09.667Z,46.10
2023-02-08T10:45:51.594Z,46.70
2023-02-08T10:48:34.295Z,46.10
2023-02-08T10:51:01.377Z,47.10
2023-02-08T10:53:28.614Z,46.60
2023-02-08T10:55:56.191Z,46.90
2023-02-08T10:58:28.410Z,46.30
2023-02-08T11:00:57.621Z,46.00
2023-02-08T11:03:29.656Z,45.80
2023-02-08T11:05:56.614Z,46.40
2023-02-08T11:08:25.720Z,46.40
2023-02-08T11:10:55.341Z,46.30
2023-02-08T11:13:22.956Z,48.40
2023-02-08T11:15:57.008Z,47.50
2023-02-08T11:18:35.668Z,47.30
2023-02-08T11:21:10.631Z,47.80
2023-02-08T11:23:42.546Z,47.30
2023-02-08T11:26:31.614Z,47.80
2023-02-08T11:29:26.422Z,47.70
2023-02-08T11:32:04.374Z,49.30
2023-02-08T11:34:34.282Z,45.50
2023-02-08T11:37:28.867Z,44.80
2023-02-08T11:40:00.343Z,44.40
2023-02-08T11:42:36.156Z,45.10
2023-02-08T11:45:04.888Z,43.90
2023-02-08T11:47:37.268Z,43.30
2023-02-08T11:50:09.001Z,44.40
2023-02-08T11:52:42.746Z,43.20
2023-02-08T11:55:25.852Z,43.90
2023-02-08T11:58:00.992Z,43.50
2023-02-08T12:00:39.025Z,43.90
2023-02-08T12:03:19.000Z,43.10
2023-02-08T12:06:11.280Z,43.70
2023-02-08T12:08:52.284Z,41.80
2023-02-08T12:11:43.327Z,41.50
2023-02-08T12:14:39.950Z,39.90
2023-02-08T12:17:36.273Z,39.60
2023-02-08T12:20:56.431Z,40.70
2023-02-08T12:23:35.184Z,40.30
2023-02-08T12:26:24.098Z,38.10
2023-02-08T12:29:13.440Z,38.90
2023-02-08T12:31:54.947Z,39.70
2023-02-08T12:34:49.659Z,40.30
2023-02-08T12:37:56.503Z,39.50
2023-02-08T12:40:46.620Z,38.00
2023-02-08T12:43:48.619Z,39.50
2023-02-08T12:46:27.826Z,38.20
2023-02-08T12:49:20.136Z,37.30
2023-02-08T12:51:49.718Z,36.70
2023-02-08T12:54:27.332Z,37.90
2023-02-08T12:57:02.039Z,38.30
2023-02-08T12:59:40.190Z,37.50
2023-02-08T13:02:44.441Z,37.20
2023-02-08T13:05:20.304Z,36.70
2023-02-08T13:07:50.714Z,36.50
2023-02-08T13:10:36.639Z,37.20
2023-02-08T13:13:26.265Z,36.70
2023-02-08T13:16:09.451Z,37.40
2023-02-08T13:18:49.433Z,36.50
2023-02-08T13:21:30.794Z,35.50
2023-02-08T13:23:58.552Z,34.80
2023-02-08T13:26:34.402Z,35.50
2023-02-08T13:29:03.188Z,36.10
2023-02-08T13:31:39.700Z,35.00
2023-02-08T13:34:31.939Z,34.70
2023-02-08T13:37:02.500Z,35.00
2023-02-08T13:39:29.276Z,34.00
2023-02-08T13:41:57.251Z,33.50
2023-02-08T13:44:37.152Z,33.30
2023-02-08T13:47:06.156Z,34.50
2023-02-08T13:49:51.430Z,34.70
2023-02-08T13:52:46.582Z,34.10
2023-02-08T13:55:33.874Z,33.90
2023-02-08T13:58:28.783Z,32.30
2023-02-08T14:00:56.631Z,32.40
2023-02-08T14:03:28.860Z,32.50
2023-02-08T14:06:03.020Z,32.40
2023-02-08T14:08:41.898Z,32.40
2023-02-08T14:11:45.612Z,32.40
2023-02-08T14:14:35.098Z,32.00
2023-02-08T14:17:07.545Z,32.50
2023-02-08T14:19:36.659Z,32.40
2023-02-08T14:22:11.614Z,32.80
2023-02-08T14:24:41.448Z,33.10
2023-02-08T14:27:29.976Z,33.50
2023-02-08T14:29:56.733Z,33.40
2023-02-08T14:32:25.427Z,33.80
2023-02-08T14:35:08.743Z,33.30
2023-02-08T14:37:37.666Z,34.20
2023-02-08T14:40:25.025Z,34.50
2023-02-08T14:43:04.640Z,34.70
2023-02-08T14:45:37.454Z,34.30
2023-02-08T14:48:09.838Z,35.30
2023-02-08T14:50:41.232Z,36.30
2023-02-08T14:53:14.249Z,36.20
2023-02-08T14:55:49.318Z,37.40
2023-02-08T14:58:26.670Z,37.90
2023-02-08T15:00:55.075Z,39.10
2023-02-08T15:03:22.671Z,38.20
2023-02-08T15:06:18.531Z,38.90
2023-02-08T15:08:53.930Z,39.30
2023-02-08T15:11:27.027Z,40.00
2023-02-08T15:13:55.995Z,40.20
2023-02-08T15:16:34.176Z,40.80
2023-02-08T15:19:02.478Z,40.80
2023-02-08T15:21:32.287Z,41.50
2023-02-08T15:24:05.825Z,40.60
2023-02-08T15:26:32.828Z,41.60
2023-02-08T15:29:01.023Z,42.00
2023-02-08T15:31:32.612Z,42.40
2023-02-08T15:34:02.193Z,41.60
2023-02-08T15:36:32.301Z,42.20
2023-02-08T15:39:09.795Z,42.00
2023-02-08T15:41:38.237Z,42.40
2023-02-08T15:44:25.154Z,42.40
2023-02-08T15:49:37.960Z,43.20
2023-02-08T15:52:05.964Z,43.20
2023-02-08T15:54:33.252Z,42.80
2023-02-08T15:57:17.159Z,43.00
2023-02-08T15:59:46.766Z,43.60
2023-02-08T16:02:32.076Z,43.50
2023-02-08T16:05:00.697Z,43.70
2023-02-08T16:07:43.116Z,44.20
2023-02-08T16:10:29.340Z,44.10
2023-02-08T16:13:04.460Z,44.30
2023-02-08T16:15:46.375Z,45.10
2023-02-08T16:18:38.378Z,45.10
2023-02-08T16:21:26.871Z,45.30
2023-02-08T16:24:13.889Z,45.60
2023-02-08T16:26:44.441Z,45.70
2023-02-08T16:29:21.662Z,46.10
2023-02-08T16:31:56.424Z,46.20
2023-02-08T16:34:23.670Z,46.20
2023-02-08T16:36:52.206Z,46.30
2023-02-08T16:39:18.969Z,46.70
2023-02-08T16:42:14.365Z,46.70
2023-02-08T16:45:09.448Z,47.00
2023-02-08T16:47:45.014Z,47.20
2023-02-08T16:50:21.913Z,47.60
2023-02-08T16:52:51.243Z,47.80
2023-02-08T16:55:21.677Z,48.20
2023-02-08T16:57:51.110Z,48.60
2023-02-08T17:00:21.028Z,48.60
2023-02-08T17:02:48.330Z,49.20
2023-02-08T17:05:16.343Z,49.30
2023-02-08T17:07:43.402Z,49.30
2023-02-08T17:10:28.522Z,49.40
2023-02-08T17:13:09.859Z,49.40
2023-02-08T17:15:49.008Z,50.10
2023-02-08T17:18:16.047Z,50.60
2023-02-08T17:20:43.738Z,51.30
2023-02-08T17:23:10.997Z,51.50
2023-02-08T17:25:38.167Z,52.20
2023-02-08T17:28:16.006Z,52.30
2023-02-08T17:30:44.736Z,53.00
2023-02-08T17:33:18.873Z,53.90
2023-02-08T17:35:53.883Z,53.90
2023-02-08T17:38:21.079Z,53.80
2023-02-08T17:40:48.548Z,54.10
2023-02-08T17:43:15.916Z,54.90
2023-02-08T17:45:44.464Z,55.80
2023-02-08T17:48:13.510Z,55.00
2023-02-08T17:50:43.915Z,56.10
2023-02-08T17:53:11.091Z,56.20
2023-02-08T17:55:40.607Z,56.60
2023-02-08T17:58:07.478Z,56.80
2023-02-08T18:00:34.977Z,57.00
2023-02-08T18:03:03.063Z,57.40
2023-02-08T18:05:30.565Z,57.20
2023-02-08T18:07:57.846Z,57.50
2023-02-08T18:10:25.835Z,57.80
2023-02-08T18:12:52.907Z,58.00
2023-02-08T18:15:21.566Z,58.10
2023-02-08T18:17:51.462Z,58.40
2023-02-08T18:20:19.642Z,58.30
2023-02-08T18:22:47.661Z,59.70
2023-02-08T18:25:16.230Z,59.50
2023-02-08T18:27:46.147Z,59.50
2023-02-08T18:30:14.498Z,59.50
2023-02-08T18:32:41.393Z,59.80
2023-02-08T18:35:08.937Z,60.10
2023-02-08T18:37:37.202Z,60.50
2023-02-08T18:40:08.194Z,61.70
2023-02-08T18:42:36.291Z,63.20
2023-02-08T18:45:06.697Z,63.70
2023-02-08T18:47:36.034Z,63.40
2023-02-08T18:50:03.322Z,62.60
2023-02-08T18:52:31.641Z,62.20
2023-02-08T18:54:58.791Z,62.00
2023-02-08T18:57:25.738Z,62.10
2023-02-08T18:59:54.045Z,63.30
2023-02-08T19:02:23.332Z,63.90
2023-02-08T19:04:50.249Z,63.60
2023-02-08T19:07:17.103Z,64.30
2023-02-08T19:09:44.338Z,64.10
2023-02-08T19:12:15.662Z,63.90
2023-02-08T19:14:43.634Z,64.10
2023-02-08T19:17:12.338Z,64.70
2023-02-08T19:19:40.526Z,64.30
2023-02-08T19:22:07.359Z,63.70
2023-02-08T19:24:34.591Z,65.20
2023-02-08T19:27:01.521Z,64.50
2023-02-08T19:29:28.478Z,64.00
2023-02-08T19:31:58.063Z,63.90
2023-02-08T19:34:25.230Z,65.60
2023-02-08T19:36:53.966Z,65.40
2023-02-08T19:39:24.654Z,64.70
2023-02-08T19:41:52.869Z,64.20
2023-02-08T19:44:20.871Z,66.30
2023-02-08T19:46:53.870Z,66.20
2023-02-08T19:49:22.314Z,66.20
2023-02-08T19:51:49.401Z,66.20
2023-02-08T19:54:18.635Z,66.20
2023-02-08T19:56:46.083Z,66.40
2023-02-08T19:59:22.758Z,66.90
2023-02-08T20:01:50.033Z,66.80
2023-02-08T20:04:16.999Z,67.10
2023-02-08T20:06:45.479Z,68.20
2023-02-08T20:09:13.280Z,68.60
2023-02-08T20:11:55.064Z,68.90
2023-02-08T20:14:23.748Z,69.30
2023-02-08T20:16:50.609Z,69.30
2023-02-08T20:19:18.854Z,69.90
2023-02-08T20:21:45.938Z,70.60
2023-02-08T20:24:13.995Z,71.20
2023-02-08T20:26:43.942Z,71.70
2023-02-08T20:29:11.493Z,71.60
2023-02-08T20:31:41.020Z,73.40
2023-02-08T20:34:11.609Z,75.10
2023-02-08T20:36:57.427Z,74.10
2023-02-08T20:39:28.054Z,73.20
2023-02-08T20:41:57.940Z,73.50
2023-02-08T20:44:25.772Z,73.40
2023-02-08T20:46:54.741Z,74.50
2023-02-08T20:49:25.384Z,74.40
2023-02-08T20:51:53.742Z,73.80
2023-02-08T20:54:23.837Z,75.00
2023-02-08T20:56:51.717Z,78.10
2023-02-08T20:59:18.869Z,76.80
2023-02-08T21:01:46.580Z,74.90
2023-02-08T21:04:13.917Z,73.90
2023-02-08T21:06:44.541Z,77.20
2023-02-08T21:09:16.308Z,78.10
2023-02-08T21:11:44.121Z,78.10
2023-02-08T21:14:15.336Z,76.50
2023-02-08T21:16:42.266Z,75.00
2023-02-08T21:19:10.828Z,74.80
2023-02-08T21:21:37.665Z,76.60
2023-02-08T21:24:04.879Z,75.20
2023-02-08T21:26:31.765Z,74.00
2023-02-08T21:28:59.028Z,74.00
2023-02-08T21:31:26.638Z,73.30
2023-02-08T21:33:53.976Z,77.10
2023-02-08T21:36:23.324Z,77.40
2023-02-08T21:38:50.762Z,78.20
2023-02-08T21:41:20.444Z,78.60
2023-02-08T21:43:49.551Z,79.40
2023-02-08T21:46:17.155Z,83.10
2023-02-08T21:49:02.978Z,81.70
2023-02-08T21:51:48.576Z,80.80
2023-02-08T21:54:36.773Z,80.00
2023-02-08T21:57:07.809Z,80.40
2023-02-08T21:59:36.876Z,84.60
2023-02-08T22:02:08.581Z,84.00
2023-02-08T22:04:36.727Z,83.40
2023-02-08T22:07:04.663Z,84.40
2023-02-08T22:09:31.943Z,85.50
2023-02-08T22:11:59.131Z,86.60
2023-02-08T22:14:26.077Z,86.50
2023-02-08T22:16:53.004Z,85.50
2023-02-08T22:19:19.805Z,85.00
2023-02-08T22:21:46.634Z,85.30
2023-02-08T22:24:13.716Z,85.90
2023-02-08T22:26:40.874Z,87.10
2023-02-08T22:29:07.678Z,87.00
2023-02-08T22:31:34.575Z,85.70
2023-02-08T22:34:01.562Z,85.40
2023-02-08T22:36:28.499Z,85.50
2023-02-08T22:38:55.743Z,86.40
2023-02-08T22:41:23.416Z,85.60
2023-02-08T22:43:50.518Z,85.30
2023-02-08T22:46:17.435Z,85.40
2023-02-08T22:48:46.510Z,85.60
2023-02-08T22:51:17.333Z,84.70
2023-02-08T22:53:45.161Z,83.50
2023-02-08T22:56:14.935Z,85.30
2023-02-08T22:58:41.868Z,84.00
2023-02-08T23:01:13.612Z,84.30
2023-02-08T23:03:40.523Z,85.70
2023-02-08T23:06:09.559Z,86.50
2023-02-08T23:08:36.948Z,86.40
2023-02-08T23:11:05.491Z,87.60
2023-02-08T23:14:28.502Z,88.40
2023-02-08T23:16:55.840Z,87.60
2023-02-08T23:19:22.684Z,86.20
2023-02-08T23:21:49.557Z,85.10
2023-02-08T23:24:16.576Z,83.90
2023-02-08T23:26:43.470Z,84.10
2023-02-08T23:29:10.309Z,84.10
2023-02-08T23:31:40.701Z,83.00
2023-02-08T23:34:07.561Z,80.50
2023-02-08T23:36:34.366Z,81.90
2023-02-08T23:39:01.344Z,83.70
2023-02-08T23:41:28.142Z,83.60
2023-02-08T23:43:54.937Z,83.40
2023-02-08T23:46:25.280Z,83.20
2023-02-08T23:48:52.398Z,82.60
2023-02-08T23:51:21.637Z,83.40
2023-02-08T23:53:49.817Z,85.10
2023-02-08T23:56:22.545Z,84.60
2023-02-08T23:58:52.164Z,84.90
